Time;durP1;ratioP1;P1;durP2;ratioP2;P2;SDS_P1;SDS_P2;PMS_P1;PMS_P2;Temp;Humidity;BMP_temperature;BMP_pressure;BME280_temperature;BME280_humidity;BME280_pressure;Samples;Min_cycle;Max_cycle;Signal;HPM_P1;HPM_P2
2023/11/28 00:01:08;;;;;;;137.70;66.20;;;;;;;-128.00;-1.00;-1.00;105627;1254;1003638;-78
2023/11/28 00:03:36;;;;;;;132.50;59.50;;;;;;;-128.00;-1.00;-1.00;105343;1253;1004364;-78
2023/11/28 00:06:20;;;;;;;105.70;53.80;;;;;;;-128.00;-1.00;-1.00;103024;1254;1059366;-78
2023/11/28 00:08:47;;;;;;;116.40;55.40;;;;;;;-128.00;-1.00;-1.00;103058;1253;1004829;-78
2023/11/28 00:11:22;;;;;;;109.00;53.40;;;;;;;-128.00;-1.00;-1.00;103090;1253;1004638;-77
2023/11/28 00:13:49;;;;;;;108.00;49.70;;;;;;;-128.00;-1.00;-1.00;103052;1253;1065016;-78
2023/11/28 00:16:17;;;;;;;109.10;47.60;;;;;;;-128.00;-1.00;-1.00;103161;1253;1004573;-78
2023/11/28 00:18:43;;;;;;;80.00;39.50;;;;;;;-128.00;-1.00;-1.00;102945;1253;1004260;-78
2023/11/28 00:21:10;;;;;;;84.00;42.30;;;;;;;-128.00;-1.00;-1.00;103116;1256;1005191;-78
2023/11/28 00:23:36;;;;;;;85.80;41.60;;;;;;;-128.00;-1.00;-1.00;102972;1255;1004652;-78
2023/11/28 00:26:03;;;;;;;90.80;43.40;;;;;;;-128.00;-1.00;-1.00;102972;1255;1004379;-78
2023/11/28 00:28:29;;;;;;;84.70;39.50;;;;;;;-128.00;-1.00;-1.00;105117;1255;1004522;-78
2023/11/28 00:30:56;;;;;;;91.50;45.00;;;;;;;-128.00;-1.00;-1.00;105450;1256;1005073;-78
2023/11/28 00:33:23;;;;;;;89.70;42.60;;;;;;;-128.00;-1.00;-1.00;105500;1253;1005050;-78
2023/11/28 00:35:49;;;;;;;101.80;50.50;;;;;;;-128.00;-1.00;-1.00;104504;1253;1004333;-78
2023/11/28 00:38:16;;;;;;;101.30;51.20;;;;;;;-128.00;-1.00;-1.00;103949;1253;1004126;-78
2023/11/28 00:40:43;;;;;;;121.10;55.50;;;;;;;-128.00;-1.00;-1.00;105374;1253;1004893;-78
2023/11/28 00:43:10;;;;;;;108.90;53.90;;;;;;;-128.00;-1.00;-1.00;105592;1253;1004304;-78
2023/11/28 00:45:38;;;;;;;112.70;51.30;;;;;;;-128.00;-1.00;-1.00;103322;1253;1004068;-78
2023/11/28 00:48:05;;;;;;;110.90;52.10;;;;;;;-128.00;-1.00;-1.00;103071;1253;1004990;-78
2023/11/28 00:50:32;;;;;;;106.30;50.90;;;;;;;-128.00;-1.00;-1.00;103100;1253;1004869;-78
2023/11/28 00:52:59;;;;;;;96.90;48.80;;;;;;;-128.00;-1.00;-1.00;103073;1253;1005251;-78
2023/11/28 00:55:26;;;;;;;103.70;48.40;;;;;;;-128.00;-1.00;-1.00;103103;1253;1004946;-78
2023/11/28 00:57:53;;;;;;;102.40;49.50;;;;;;;-128.00;-1.00;-1.00;103070;1257;1004090;-77
2023/11/28 01:00:19;;;;;;;90.50;41.50;;;;;;;-128.00;-1.00;-1.00;103098;1253;1005488;-78
2023/11/28 01:02:46;;;;;;;85.70;43.80;;;;;;;-128.00;-1.00;-1.00;103082;1253;1004608;-78
2023/11/28 01:05:13;;;;;;;99.50;45.00;;;;;;;-128.00;-1.00;-1.00;103033;1257;1003674;-78
2023/11/28 01:07:40;;;;;;;100.00;50.60;;;;;;;-128.00;-1.00;-1.00;103067;1253;1005509;-78
2023/11/28 01:10:07;;;;;;;104.90;50.80;;;;;;;-128.00;-1.00;-1.00;103084;1253;1004908;-78
2023/11/28 01:12:34;;;;;;;99.30;49.40;;;;;;;-128.00;-1.00;-1.00;103136;1253;1004170;-78
2023/11/28 01:15:00;;;;;;;105.60;54.30;;;;;;;-128.00;-1.00;-1.00;103085;1253;1004864;-78
2023/11/28 01:17:27;;;;;;;98.40;49.40;;;;;;;-128.00;-1.00;-1.00;104497;1253;1004792;-78
2023/11/28 01:19:54;;;;;;;102.80;48.10;;;;;;;-128.00;-1.00;-1.00;103525;1253;1004711;-77
2023/11/28 01:22:20;;;;;;;100.90;48.30;;;;;;;-128.00;-1.00;-1.00;103199;1253;1004288;-79
2023/11/28 01:24:47;;;;;;;106.30;52.20;;;;;;;-128.00;-1.00;-1.00;102975;1253;1004102;-78
2023/11/28 01:27:13;;;;;;;97.20;48.00;;;;;;;-128.00;-1.00;-1.00;103049;1253;1004645;-78
2023/11/28 01:29:40;;;;;;;108.30;49.40;;;;;;;-128.00;-1.00;-1.00;103115;1253;1003779;-77
2023/11/28 01:32:07;;;;;;;99.40;48.30;;;;;;;-128.00;-1.00;-1.00;103130;1253;1004917;-78
2023/11/28 01:34:33;;;;;;;91.80;43.90;;;;;;;-128.00;-1.00;-1.00;103132;1253;1003587;-78
2023/11/28 01:37:00;;;;;;;79.80;42.50;;;;;;;-128.00;-1.00;-1.00;103067;1253;1004389;-78
2023/11/28 01:39:26;;;;;;;85.50;41.50;;;;;;;-128.00;-1.00;-1.00;103158;1253;1004063;-78
2023/11/28 01:41:53;;;;;;;87.40;42.60;;;;;;;-128.00;-1.00;-1.00;103122;1253;1004625;-78
2023/11/28 01:44:20;;;;;;;87.40;48.10;;;;;;;-128.00;-1.00;-1.00;103135;1253;1004726;-78
2023/11/28 01:46:46;;;;;;;93.90;45.60;;;;;;;-128.00;-1.00;-1.00;103122;1253;1004160;-78
2023/11/28 01:49:13;;;;;;;90.90;44.80;;;;;;;-128.00;-1.00;-1.00;103143;1253;1004583;-78
2023/11/28 01:51:39;;;;;;;95.80;46.60;;;;;;;-128.00;-1.00;-1.00;103011;1253;1004047;-78
2023/11/28 01:54:07;;;;;;;102.30;48.60;;;;;;;-128.00;-1.00;-1.00;103127;1253;1004424;-78
2023/11/28 01:56:34;;;;;;;110.90;52.10;;;;;;;-128.00;-1.00;-1.00;102972;1253;1004377;-78
2023/11/28 01:59:01;;;;;;;106.20;54.20;;;;;;;-128.00;-1.00;-1.00;102966;1253;1004304;-78
2023/11/28 02:01:27;;;;;;;109.40;55.40;;;;;;;-128.00;-1.00;-1.00;103153;1253;1004116;-78
2023/11/28 02:03:54;;;;;;;128.20;59.80;;;;;;;-128.00;-1.00;-1.00;102931;1253;1005037;-78
2023/11/28 02:06:20;;;;;;;125.80;61.60;;;;;;;-128.00;-1.00;-1.00;102921;1253;1004827;-78
2023/11/28 02:08:47;;;;;;;123.50;59.50;;;;;;;-128.00;-1.00;-1.00;102933;1253;1004885;-78
2023/11/28 02:11:14;;;;;;;131.10;60.20;;;;;;;-128.00;-1.00;-1.00;103103;1253;1004277;-78
2023/11/28 02:13:41;;;;;;;136.10;63.90;;;;;;;-128.00;-1.00;-1.00;103142;1253;1004496;-79
2023/11/28 02:16:11;;;;;;;132.30;63.20;;;;;;;-128.00;-1.00;-1.00;103176;1253;1004275;-78
2023/11/28 02:18:38;;;;;;;134.80;64.50;;;;;;;-128.00;-1.00;-1.00;103100;1253;1058226;-78
2023/11/28 02:21:06;;;;;;;134.70;65.00;;;;;;;-128.00;-1.00;-1.00;104162;1254;1005527;-78
2023/11/28 02:23:32;;;;;;;111.90;59.60;;;;;;;-128.00;-1.00;-1.00;104445;1254;1004055;-77
2023/11/28 02:26:02;;;;;;;137.70;66.10;;;;;;;-128.00;-1.00;-1.00;103018;1255;1005010;-78
2023/11/28 02:28:29;;;;;;;131.30;63.80;;;;;;;-128.00;-1.00;-1.00;102998;1256;1062876;-78
2023/11/28 02:30:57;;;;;;;124.20;61.60;;;;;;;-128.00;-1.00;-1.00;102990;1258;1004307;-79
2023/11/28 02:33:23;;;;;;;128.80;63.10;;;;;;;-128.00;-1.00;-1.00;103003;1255;1004141;-78
2023/11/28 02:35:51;;;;;;;146.30;71.60;;;;;;;-128.00;-1.00;-1.00;102744;1260;1004326;-78
2023/11/28 02:38:18;;;;;;;131.30;63.90;;;;;;;-128.00;-1.00;-1.00;105469;1254;1004254;-79
2023/11/28 02:40:46;;;;;;;125.00;61.70;;;;;;;-128.00;-1.00;-1.00;105434;1254;1003260;-78
2023/11/28 02:43:15;;;;;;;130.50;66.60;;;;;;;-128.00;-1.00;-1.00;105348;1257;1003824;-78
2023/11/28 02:45:43;;;;;;;133.60;67.10;;;;;;;-128.00;-1.00;-1.00;103814;1256;1059244;-78
2023/11/28 02:48:10;;;;;;;136.90;72.50;;;;;;;-128.00;-1.00;-1.00;103708;1256;1046414;-78
2023/11/28 02:50:37;;;;;;;144.10;71.00;;;;;;;-128.00;-1.00;-1.00;105433;1256;1004617;-78
2023/11/28 02:53:04;;;;;;;141.70;70.90;;;;;;;-128.00;-1.00;-1.00;105234;1254;1004598;-78
2023/11/28 02:55:31;;;;;;;140.90;65.30;;;;;;;-128.00;-1.00;-1.00;105450;1256;1005024;-78
2023/11/28 02:57:58;;;;;;;175.20;78.10;;;;;;;-128.00;-1.00;-1.00;105324;1254;1004987;-78
2023/11/28 03:00:25;;;;;;;118.30;60.10;;;;;;;-128.00;-1.00;-1.00;105360;1254;1004871;-78
2023/11/28 03:02:52;;;;;;;123.90;62.80;;;;;;;-128.00;-1.00;-1.00;105440;1255;1004450;-79
2023/11/28 03:05:18;;;;;;;119.60;58.90;;;;;;;-128.00;-1.00;-1.00;105341;1254;1003926;-78
2023/11/28 03:07:45;;;;;;;111.90;53.60;;;;;;;-128.00;-1.00;-1.00;105308;1254;1003925;-78
2023/11/28 03:10:11;;;;;;;117.40;61.00;;;;;;;-128.00;-1.00;-1.00;103100;1254;1006637;-78
2023/11/28 03:12:38;;;;;;;126.40;64.10;;;;;;;-128.00;-1.00;-1.00;103238;1254;1005870;-79
2023/11/28 03:15:08;;;;;;;120.40;57.90;;;;;;;-128.00;-1.00;-1.00;103342;1254;1003739;-78
2023/11/28 03:17:35;;;;;;;114.20;55.00;;;;;;;-128.00;-1.00;-1.00;105708;1254;1061778;-78
2023/11/28 03:20:03;;;;;;;106.00;55.10;;;;;;;-128.00;-1.00;-1.00;105691;1253;1004489;-79
2023/11/28 03:22:29;;;;;;;119.90;56.80;;;;;;;-128.00;-1.00;-1.00;105641;1253;1003959;-79
2023/11/28 04:52:06;;;;;;;65.10;33.60;;;;;;;-128.00;-1.00;-1.00;102898;1254;1063390;-79
2023/11/28 04:54:34;;;;;;;64.50;34.20;;;;;;;-128.00;-1.00;-1.00;105515;1258;1003821;-78
2023/11/28 04:57:01;;;;;;;63.00;34.90;;;;;;;-128.00;-1.00;-1.00;105519;1254;1003931;-79
2023/11/28 04:59:28;;;;;;;57.50;28.90;;;;;;;-128.00;-1.00;-1.00;105524;1254;1004478;-78
2023/11/28 05:01:54;;;;;;;65.80;34.20;;;;;;;-128.00;-1.00;-1.00;105529;1254;1003736;-78
2023/11/28 05:04:21;;;;;;;56.70;28.40;;;;;;;-128.00;-1.00;-1.00;105519;1254;1005232;-78
2023/11/28 05:06:47;;;;;;;61.20;30.50;;;;;;;-128.00;-1.00;-1.00;105533;1254;1004765;-80
2023/11/28 05:09:17;;;;;;;55.40;30.00;;;;;;;-128.00;-1.00;-1.00;105524;1254;1005055;-78
2023/11/28 05:11:44;;;;;;;44.10;25.40;;;;;;;-128.00;-1.00;-1.00;105519;1255;1046191;-79
2023/11/28 05:14:11;;;;;;;46.20;27.90;;;;;;;-128.00;-1.00;-1.00;105545;1254;1003291;-78
2023/11/28 05:16:37;;;;;;;58.10;31.20;;;;;;;-128.00;-1.00;-1.00;104070;1259;1004255;-78
2023/11/28 05:19:05;;;;;;;52.90;29.30;;;;;;;-128.00;-1.00;-1.00;103093;1254;1004528;-78
2023/11/28 05:21:31;;;;;;;61.50;32.40;;;;;;;-128.00;-1.00;-1.00;103354;1253;1003841;-78
2023/11/28 05:23:58;;;;;;;49.40;27.10;;;;;;;-128.00;-1.00;-1.00;104508;1255;1003308;-78
2023/11/28 05:26:28;;;;;;;59.60;32.90;;;;;;;-128.00;-1.00;-1.00;103209;1254;1004248;-78
2023/11/28 05:28:59;;;;;;;56.20;31.20;;;;;;;-128.00;-1.00;-1.00;103117;1256;1062563;-78
2023/11/28 05:31:26;;;;;;;58.50;33.10;;;;;;;-128.00;-1.00;-1.00;103074;1260;1004939;-78
2023/11/28 05:33:53;;;;;;;62.90;32.50;;;;;;;-128.00;-1.00;-1.00;103038;1255;1004930;-78
2023/11/28 05:36:19;;;;;;;61.10;33.30;;;;;;;-128.00;-1.00;-1.00;103112;1254;1004847;-78
2023/11/28 05:38:46;;;;;;;57.60;32.60;;;;;;;-128.00;-1.00;-1.00;103169;1253;1005584;-79
2023/11/28 05:41:12;;;;;;;53.90;30.50;;;;;;;-128.00;-1.00;-1.00;103160;1254;1004009;-78
2023/11/28 05:43:39;;;;;;;44.30;27.60;;;;;;;-128.00;-1.00;-1.00;103124;1256;1005177;-78
2023/11/28 05:46:06;;;;;;;31.80;19.90;;;;;;;-128.00;-1.00;-1.00;105644;1253;1004759;-78
2023/11/28 05:48:33;;;;;;;42.60;24.00;;;;;;;-128.00;-1.00;-1.00;105484;1254;1005039;-78
2023/11/28 05:51:00;;;;;;;34.90;21.70;;;;;;;-128.00;-1.00;-1.00;105665;1253;1003832;-78
2023/11/28 05:53:27;;;;;;;38.30;22.20;;;;;;;-128.00;-1.00;-1.00;105610;1255;1004471;-78
2023/11/28 05:55:54;;;;;;;39.60;21.60;;;;;;;-128.00;-1.00;-1.00;105334;1254;1003641;-78
2023/11/28 05:58:21;;;;;;;34.70;20.60;;;;;;;-128.00;-1.00;-1.00;105360;1254;1003931;-78
2023/11/28 06:00:49;;;;;;;38.40;20.90;;;;;;;-128.00;-1.00;-1.00;103157;1253;1003738;-78
2023/11/28 06:03:16;;;;;;;30.20;18.80;;;;;;;-128.00;-1.00;-1.00;103719;1258;1046865;-78
2023/11/28 06:05:43;;;;;;;31.40;17.70;;;;;;;-128.00;-1.00;-1.00;103327;1254;1004763;-78
2023/11/28 06:08:10;;;;;;;32.70;18.30;;;;;;;-128.00;-1.00;-1.00;103324;1253;1004371;-78
2023/11/28 06:10:36;;;;;;;34.00;18.50;;;;;;;-128.00;-1.00;-1.00;103128;1253;1004951;-79
2023/11/28 06:13:03;;;;;;;33.60;19.40;;;;;;;-128.00;-1.00;-1.00;103154;1259;1004647;-78
2023/11/28 06:15:29;;;;;;;45.10;24.30;;;;;;;-128.00;-1.00;-1.00;103215;1255;1004617;-78
2023/11/28 06:17:56;;;;;;;54.20;25.70;;;;;;;-128.00;-1.00;-1.00;103210;1259;1004726;-78
2023/11/28 06:20:22;;;;;;;54.60;30.10;;;;;;;-128.00;-1.00;-1.00;103155;1259;1004511;-78
2023/11/28 06:22:49;;;;;;;53.60;30.80;;;;;;;-128.00;-1.00;-1.00;103235;1254;1004519;-78
2023/11/28 06:25:16;;;;;;;47.20;26.00;;;;;;;-128.00;-1.00;-1.00;103184;1255;1005038;-78
2023/11/28 06:27:42;;;;;;;49.70;29.20;;;;;;;-128.00;-1.00;-1.00;103220;1254;1004670;-78
2023/11/28 06:30:09;;;;;;;50.30;28.50;;;;;;;-128.00;-1.00;-1.00;104637;1253;1004917;-79
2023/11/28 06:32:36;;;;;;;45.70;24.90;;;;;;;-128.00;-1.00;-1.00;103049;1254;1004733;-78
2023/11/28 06:35:03;;;;;;;48.10;28.00;;;;;;;-128.00;-1.00;-1.00;105261;1257;1003673;-78
2023/11/28 06:37:29;;;;;;;47.60;28.80;;;;;;;-128.00;-1.00;-1.00;105060;1254;1004377;-79
2023/11/28 06:39:56;;;;;;;47.50;25.90;;;;;;;-128.00;-1.00;-1.00;103309;1254;1005127;-79
2023/11/28 06:42:23;;;;;;;50.70;26.50;;;;;;;-128.00;-1.00;-1.00;103179;1257;1005018;-78
2023/11/28 06:44:50;;;;;;;47.00;25.40;;;;;;;-128.00;-1.00;-1.00;103227;1255;1004950;-79
2023/11/28 06:47:17;;;;;;;43.30;22.00;;;;;;;-128.00;-1.00;-1.00;103303;1254;1005298;-78
2023/11/28 06:49:45;;;;;;;45.00;26.60;;;;;;;-128.00;-1.00;-1.00;103226;1254;1004521;-79
2023/11/28 06:52:13;;;;;;;44.20;23.90;;;;;;;-128.00;-1.00;-1.00;103274;1257;1005249;-79
2023/11/28 06:54:42;;;;;;;60.20;32.80;;;;;;;-128.00;-1.00;-1.00;103218;1257;1062542;-78
2023/11/28 06:57:09;;;;;;;69.70;32.70;;;;;;;-128.00;-1.00;-1.00;105552;1253;1058680;-78
2023/11/28 06:59:36;;;;;;;70.80;35.70;;;;;;;-128.00;-1.00;-1.00;105531;1254;1003553;-78
2023/11/28 07:02:03;;;;;;;76.80;35.20;;;;;;;-128.00;-1.00;-1.00;105371;1254;1004254;-78
2023/11/28 07:04:29;;;;;;;60.10;29.00;;;;;;;-128.00;-1.00;-1.00;105554;1254;1005019;-79
2023/11/28 07:06:56;;;;;;;49.10;26.20;;;;;;;-128.00;-1.00;-1.00;105579;1254;1004332;-79
2023/11/28 07:09:22;;;;;;;49.20;27.30;;;;;;;-128.00;-1.00;-1.00;105380;1253;1004648;-78
2023/11/28 07:11:55;;;;;;;49.70;26.60;;;;;;;-128.00;-1.00;-1.00;105548;1254;1004603;-79
2023/11/28 07:14:22;;;;;;;44.80;24.30;;;;;;;-128.00;-1.00;-1.00;105489;1254;1045136;-79
2023/11/28 07:16:48;;;;;;;45.60;24.80;;;;;;;-128.00;-1.00;-1.00;103546;1253;1004349;-79
2023/11/28 07:19:15;;;;;;;49.60;27.20;;;;;;;-128.00;-1.00;-1.00;103579;1253;1006877;-79
2023/11/28 07:21:41;;;;;;;55.90;30.30;;;;;;;-128.00;-1.00;-1.00;103481;1255;1004655;-79
2023/11/28 07:24:08;;;;;;;63.60;32.20;;;;;;;-128.00;-1.00;-1.00;103450;1254;1004528;-79
2023/11/28 07:26:34;;;;;;;64.90;31.20;;;;;;;-128.00;-1.00;-1.00;103404;1254;1004714;-78
2023/11/28 07:29:01;;;;;;;79.10;38.00;;;;;;;-128.00;-1.00;-1.00;103503;1254;1005578;-78
2023/11/28 07:31:28;;;;;;;69.50;35.60;;;;;;;-128.00;-1.00;-1.00;103521;1254;1003562;-79
2023/11/28 07:33:55;;;;;;;62.60;35.60;;;;;;;-128.00;-1.00;-1.00;103487;1254;1004810;-79
2023/11/28 07:36:22;;;;;;;57.50;28.60;;;;;;;-128.00;-1.00;-1.00;103609;1257;1004055;-79
2023/11/28 07:38:49;;;;;;;57.30;29.70;;;;;;;-128.00;-1.00;-1.00;103601;1254;1004841;-78
2023/11/28 07:41:16;;;;;;;53.40;27.80;;;;;;;-128.00;-1.00;-1.00;103608;1253;1004874;-79
2023/11/28 07:43:44;;;;;;;62.40;30.80;;;;;;;-128.00;-1.00;-1.00;103544;1254;1004511;-78
2023/11/28 07:46:10;;;;;;;58.60;30.70;;;;;;;-128.00;-1.00;-1.00;103499;1259;1004346;-79
2023/11/28 07:48:37;;;;;;;60.60;30.30;;;;;;;-128.00;-1.00;-1.00;103560;1253;1004009;-78
2023/11/28 07:51:04;;;;;;;53.30;26.50;;;;;;;-128.00;-1.00;-1.00;103529;1254;1004351;-79
2023/11/28 07:53:31;;;;;;;52.90;26.20;;;;;;;-128.00;-1.00;-1.00;103645;1254;1004531;-78
2023/11/28 07:55:57;;;;;;;53.70;27.50;;;;;;;-128.00;-1.00;-1.00;103630;1255;1004570;-79
2023/11/28 07:58:24;;;;;;;56.70;26.70;;;;;;;-128.00;-1.00;-1.00;103598;1254;1004091;-79
2023/11/28 08:00:51;;;;;;;52.00;27.80;;;;;;;-128.00;-1.00;-1.00;104444;1256;1004557;-79
2023/11/28 08:03:17;;;;;;;60.80;30.90;;;;;;;-128.00;-1.00;-1.00;105514;1253;1004647;-79
2023/11/28 08:05:44;;;;;;;49.80;27.00;;;;;;;-128.00;-1.00;-1.00;105527;1254;1004617;-79
2023/11/28 08:08:11;;;;;;;77.70;37.60;;;;;;;-128.00;-1.00;-1.00;105434;1256;1005253;-78
2023/11/28 08:10:37;;;;;;;62.50;32.60;;;;;;;-128.00;-1.00;-1.00;105545;1254;1004290;-79
2023/11/28 08:13:05;;;;;;;60.80;32.60;;;;;;;-128.00;-1.00;-1.00;105390;1254;1003898;-79
2023/11/28 08:15:32;;;;;;;58.70;30.70;;;;;;;-128.00;-1.00;-1.00;105518;1254;1003941;-79
2023/11/28 08:17:58;;;;;;;53.10;30.20;;;;;;;-128.00;-1.00;-1.00;104636;1256;1004715;-79
2023/11/28 08:20:25;;;;;;;55.20;29.70;;;;;;;-128.00;-1.00;-1.00;103377;1255;1006690;-79
2023/11/28 08:22:52;;;;;;;53.40;28.40;;;;;;;-128.00;-1.00;-1.00;105540;1253;1004688;-79
2023/11/28 08:25:18;;;;;;;54.90;28.50;;;;;;;-128.00;-1.00;-1.00;105457;1254;1004141;-80
2023/11/28 08:27:45;;;;;;;56.50;30.90;;;;;;;-128.00;-1.00;-1.00;105450;1254;1004323;-80
2023/11/28 08:30:12;;;;;;;54.80;30.70;;;;;;;-128.00;-1.00;-1.00;105509;1254;1003958;-80
2023/11/28 08:32:38;;;;;;;53.80;30.00;;;;;;;-128.00;-1.00;-1.00;105447;1253;1004656;-80
2023/11/28 08:35:06;;;;;;;64.70;34.70;;;;;;;-128.00;-1.00;-1.00;105445;1254;1004930;-80
2023/11/28 08:37:32;;;;;;;79.10;39.60;;;;;;;-128.00;-1.00;-1.00;105409;1254;1004335;-80
2023/11/28 08:39:59;;;;;;;64.20;32.60;;;;;;;-128.00;-1.00;-1.00;105315;1254;1004505;-80
2023/11/28 08:42:26;;;;;;;54.60;29.90;;;;;;;-128.00;-1.00;-1.00;105511;1254;1003625;-80
2023/11/28 08:44:52;;;;;;;54.20;30.70;;;;;;;-128.00;-1.00;-1.00;105526;1254;1004221;-79
2023/11/28 08:47:19;;;;;;;63.60;31.80;;;;;;;-128.00;-1.00;-1.00;105324;1254;1004375;-80
2023/11/28 08:49:46;;;;;;;59.90;32.50;;;;;;;-128.00;-1.00;-1.00;105409;1253;1004955;-80
2023/11/28 08:52:12;;;;;;;51.10;29.70;;;;;;;-128.00;-1.00;-1.00;105414;1254;1003604;-80
2023/11/28 08:54:46;;;;;;;59.90;32.50;;;;;;;-128.00;-1.00;-1.00;104382;1254;1004196;-80
2023/11/28 08:57:14;;;;;;;62.50;33.90;;;;;;;-128.00;-1.00;-1.00;104687;1254;1063800;-80
2023/11/28 08:59:42;;;;;;;58.80;30.60;;;;;;;-128.00;-1.00;-1.00;105458;1254;1004364;-80
2023/11/28 09:02:09;;;;;;;59.10;31.60;;;;;;;-128.00;-1.00;-1.00;105478;1254;1004372;-79
2023/11/28 09:04:35;;;;;;;69.00;38.00;;;;;;;-128.00;-1.00;-1.00;105341;1253;1005171;-80
2023/11/28 09:07:02;;;;;;;59.90;32.60;;;;;;;-128.00;-1.00;-1.00;105505;1254;1003336;-80
2023/11/28 09:09:29;;;;;;;63.80;34.00;;;;;;;-128.00;-1.00;-1.00;105496;1253;1003745;-80
2023/11/28 09:11:56;;;;;;;58.30;31.40;;;;;;;-128.00;-1.00;-1.00;105495;1253;1004422;-80
2023/11/28 09:14:22;;;;;;;63.30;36.50;;;;;;;-128.00;-1.00;-1.00;105388;1254;1004117;-80
2023/11/28 09:16:49;;;;;;;59.30;31.60;;;;;;;-128.00;-1.00;-1.00;105468;1254;1004812;-80
2023/11/28 09:19:15;;;;;;;57.00;31.40;;;;;;;-128.00;-1.00;-1.00;105540;1253;1003931;-80
2023/11/28 09:21:42;;;;;;;56.30;32.40;;;;;;;-128.00;-1.00;-1.00;105447;1254;1004988;-80
2023/11/28 09:24:09;;;;;;;54.30;31.30;;;;;;;-128.00;-1.00;-1.00;105511;1254;1004079;-80
2023/11/28 09:26:35;;;;;;;49.70;29.40;;;;;;;-128.00;-1.00;-1.00;105370;1255;1003952;-80
2023/11/28 09:29:02;;;;;;;55.10;32.50;;;;;;;-128.00;-1.00;-1.00;105504;1253;1004587;-80
2023/11/28 09:31:29;;;;;;;72.40;39.60;;;;;;;-128.00;-1.00;-1.00;105503;1254;1004608;-79
2023/11/28 09:33:56;;;;;;;71.10;41.80;;;;;;;-128.00;-1.00;-1.00;105423;1254;1003930;-79
2023/11/28 09:36:23;;;;;;;66.20;36.70;;;;;;;-128.00;-1.00;-1.00;105484;1254;1004160;-79
2023/11/28 09:38:51;;;;;;;52.00;29.40;;;;;;;-128.00;-1.00;-1.00;105503;1253;1005697;-79
2023/11/28 09:41:27;;;;;;;49.40;29.90;;;;;;;-128.00;-1.00;-1.00;105426;1254;1004635;-79
2023/11/28 09:43:53;;;;;;;52.50;30.70;;;;;;;-128.00;-1.00;-1.00;105453;1253;1047698;-79
2023/11/28 09:46:23;;;;;;;55.20;30.10;;;;;;;-128.00;-1.00;-1.00;105483;1253;1004524;-79
2023/11/28 09:48:51;;;;;;;61.20;35.60;;;;;;;-128.00;-1.00;-1.00;105531;1254;1058697;-79
2023/11/28 09:51:19;;;;;;;55.20;33.30;;;;;;;-128.00;-1.00;-1.00;105444;1253;1004069;-79
2023/11/28 09:53:46;;;;;;;48.00;27.80;;;;;;;-128.00;-1.00;-1.00;103483;1253;1004172;-79
2023/11/28 09:56:13;;;;;;;50.20;28.60;;;;;;;-128.00;-1.00;-1.00;103445;1257;1004211;-79
2023/11/28 09:58:39;;;;;;;49.40;27.60;;;;;;;-128.00;-1.00;-1.00;103240;1257;1004468;-79
2023/11/28 10:01:06;;;;;;;54.90;30.40;;;;;;;-128.00;-1.00;-1.00;103466;1257;1004081;-79
2023/11/28 10:03:33;;;;;;;40.70;24.30;;;;;;;-128.00;-1.00;-1.00;103523;1254;1005075;-78
2023/11/28 10:05:59;;;;;;;43.80;26.90;;;;;;;-128.00;-1.00;-1.00;103290;1253;1003812;-79
2023/11/28 10:08:26;;;;;;;47.40;28.00;;;;;;;-128.00;-1.00;-1.00;103459;1257;1004896;-79
2023/11/28 10:10:56;;;;;;;53.20;29.30;;;;;;;-128.00;-1.00;-1.00;103365;1254;1004983;-80
2023/11/28 10:13:23;;;;;;;90.50;42.60;;;;;;;-128.00;-1.00;-1.00;103299;1253;1058963;-79
2023/11/28 10:15:50;;;;;;;64.20;32.60;;;;;;;-128.00;-1.00;-1.00;103462;1257;1007975;-78
2023/11/28 10:18:20;;;;;;;53.00;26.80;;;;;;;-128.00;-1.00;-1.00;103435;1254;1004523;-79
2023/11/28 10:20:47;;;;;;;57.10;29.90;;;;;;;-128.00;-1.00;-1.00;103267;1253;1047177;-79
2023/11/28 10:23:16;;;;;;;48.40;28.70;;;;;;;-128.00;-1.00;-1.00;103392;1254;1004502;-79
2023/11/28 10:25:43;;;;;;;50.80;27.50;;;;;;;-128.00;-1.00;-1.00;103267;1254;1058419;-78
2023/11/28 10:28:13;;;;;;;57.10;31.10;;;;;;;-128.00;-1.00;-1.00;103462;1253;1004690;-78
2023/11/28 10:30:40;;;;;;;85.50;44.90;;;;;;;-128.00;-1.00;-1.00;103346;1255;1046100;-78
2023/11/28 10:33:07;;;;;;;78.50;40.60;;;;;;;-128.00;-1.00;-1.00;103377;1253;1004626;-79
2023/11/28 10:35:41;;;;;;;70.30;36.60;;;;;;;-128.00;-1.00;-1.00;104715;1253;1004483;-79
2023/11/28 10:38:13;;;;;;;94.80;51.30;;;;;;;-128.00;-1.00;-1.00;105503;1253;1057083;-78
2023/11/28 10:40:49;;;;;;;396.00;206.60;;;;;;;-128.00;-1.00;-1.00;105309;1254;1058973;-79
2023/11/28 10:43:16;;;;;;;135.10;77.00;;;;;;;-128.00;-1.00;-1.00;105367;1253;1044748;-78
2023/11/28 10:45:44;;;;;;;294.40;157.70;;;;;;;-128.00;-1.00;-1.00;105385;1253;1005027;-78
2023/11/28 10:48:10;;;;;;;165.30;97.20;;;;;;;-128.00;-1.00;-1.00;105308;1254;1004296;-79
2023/11/28 10:50:37;;;;;;;95.80;52.00;;;;;;;-128.00;-1.00;-1.00;105237;1253;1004924;-79
2023/11/28 10:53:06;;;;;;;53.90;31.80;;;;;;;-128.00;-1.00;-1.00;105511;1253;1003389;-79
2023/11/28 10:55:37;;;;;;;58.00;33.80;;;;;;;-128.00;-1.00;-1.00;105589;1253;1045203;-79
2023/11/28 10:58:04;;;;;;;48.10;30.10;;;;;;;-128.00;-1.00;-1.00;105548;1254;1046967;-79
2023/11/28 11:00:37;;;;;;;48.90;29.90;;;;;;;-128.00;-1.00;-1.00;105597;1253;1004339;-79
2023/11/28 11:03:04;;;;;;;39.60;24.30;;;;;;;-128.00;-1.00;-1.00;105605;1254;1057494;-79
2023/11/28 11:05:31;;;;;;;48.60;29.50;;;;;;;-128.00;-1.00;-1.00;105430;1254;1004008;-79
2023/11/28 11:07:58;;;;;;;50.70;31.30;;;;;;;-128.00;-1.00;-1.00;105546;1254;1003953;-79
2023/11/28 11:10:27;;;;;;;67.40;39.80;;;;;;;-128.00;-1.00;-1.00;105594;1253;1004053;-79
2023/11/28 11:13:03;;;;;;;49.70;30.20;;;;;;;-128.00;-1.00;-1.00;105624;1252;1062581;-79
2023/11/28 11:15:39;;;;;;;39.10;23.60;;;;;;;-128.00;-1.00;-1.00;105579;1253;1060146;-79
2023/11/28 11:18:13;;;;;;;41.50;28.10;;;;;;;-128.00;-1.00;-1.00;105400;1253;1059555;-79
2023/11/28 11:20:40;;;;;;;42.80;27.20;;;;;;;-128.00;-1.00;-1.00;105398;1254;1045498;-79
2023/11/28 11:23:07;;;;;;;44.40;26.10;;;;;;;-128.00;-1.00;-1.00;105581;1253;1003570;-79
2023/11/28 11:25:40;;;;;;;47.00;28.90;;;;;;;-128.00;-1.00;-1.00;105438;1253;1003664;-79
2023/11/28 11:28:07;;;;;;;48.90;28.50;;;;;;;-128.00;-1.00;-1.00;105529;1254;1058139;-79
2023/11/28 11:30:37;;;;;;;49.70;26.90;;;;;;;-128.00;-1.00;-1.00;104762;1253;1004588;-79
2023/11/28 11:33:07;;;;;;;46.30;26.60;;;;;;;-128.00;-1.00;-1.00;103420;1256;1045475;-79
2023/11/28 11:36:07;;;;;;;58.00;35.60;;;;;;;-128.00;-1.00;-1.00;103376;1254;1048482;-78
2023/11/28 11:38:35;;;;;;;63.60;36.80;;;;;;;-128.00;-1.00;-1.00;103216;1254;1062818;-79
2023/11/28 11:41:03;;;;;;;51.00;33.80;;;;;;;-128.00;-1.00;-1.00;103494;1254;1004888;-78
2023/11/28 11:43:34;;;;;;;38.80;26.10;;;;;;;-128.00;-1.00;-1.00;103402;1253;1004818;-78
2023/11/28 11:46:21;;;;;;;39.60;25.50;;;;;;;-128.00;-1.00;-1.00;103642;1253;1045823;-78
2023/11/28 11:48:48;;;;;;;43.90;25.40;;;;;;;-128.00;-1.00;-1.00;105488;1252;1047456;-79
2023/11/28 11:51:15;;;;;;;47.90;26.20;;;;;;;-128.00;-1.00;-1.00;105425;1254;1004475;-79
2023/11/28 11:53:44;;;;;;;41.00;25.70;;;;;;;-128.00;-1.00;-1.00;105389;1254;1004376;-79
2023/11/28 11:56:11;;;;;;;44.40;24.40;;;;;;;-128.00;-1.00;-1.00;105460;1253;1058930;-78
2023/11/28 11:58:38;;;;;;;40.10;26.20;;;;;;;-128.00;-1.00;-1.00;105456;1253;1004510;-79
2023/11/28 12:01:04;;;;;;;48.60;26.80;;;;;;;-128.00;-1.00;-1.00;105502;1253;1004937;-79
2023/11/28 12:03:31;;;;;;;48.30;26.10;;;;;;;-128.00;-1.00;-1.00;105392;1253;1005188;-79
2023/11/28 12:05:59;;;;;;;48.40;27.30;;;;;;;-128.00;-1.00;-1.00;105536;1253;1003872;-79
2023/11/28 12:08:26;;;;;;;41.20;25.80;;;;;;;-128.00;-1.00;-1.00;105495;1253;1004032;-78
2023/11/28 12:11:14;;;;;;;49.20;27.90;;;;;;;-128.00;-1.00;-1.00;105517;1253;1003781;-78
2023/11/28 12:13:41;;;;;;;48.50;28.10;;;;;;;-128.00;-1.00;-1.00;105394;1253;1047000;-79
2023/11/28 12:16:10;;;;;;;43.70;26.20;;;;;;;-128.00;-1.00;-1.00;105374;1253;1004626;-78
2023/11/28 12:18:38;;;;;;;56.80;36.60;;;;;;;-128.00;-1.00;-1.00;105478;1253;1058087;-79
2023/11/28 12:21:05;;;;;;;52.00;28.40;;;;;;;-128.00;-1.00;-1.00;105283;1253;1004238;-78
2023/11/28 12:23:32;;;;;;;49.90;26.30;;;;;;;-128.00;-1.00;-1.00;105510;1253;1004035;-79
2023/11/28 12:25:59;;;;;;;52.80;31.30;;;;;;;-128.00;-1.00;-1.00;104591;1253;1004924;-78
2023/11/28 12:28:26;;;;;;;43.70;25.30;;;;;;;-128.00;-1.00;-1.00;103421;1253;1004870;-79